VEGT/GAU METAR and TAF weather

Enter ICAO airport designator
Station Type Date Time Source
VEGT METAR 2021/05/14 04:30 UTC NOAA

VEGT 140430Z 00000KT 3000 HZ SCT018 FEW025CB BKN100 26/20 Q1005 NOSIG


Station Type Date Time Source
VEGT Decoded METAR 2021/05/14 04:30 UTC NOAA

Gauhati, India (VEGT) 26-06N 091-35E 54M
May 14, 2021 - 12:30 AM EDT / 2021.05.14 0430 UTC
Wind: Calm:0
Visibility: 1 mile(s):0
Sky conditions: mostly cloudy
Weather: haze; Cumulonimbus clouds observed
Temperature: 78 F (26 C)
Dew Point: 68 F (20 C)
Relative Humidity: 69%
Pressure (altimeter): 29.68 in. Hg (1005 hPa)
ob: VEGT 140430Z 00000KT 3000 HZ SCT018 FEW025CB BKN100 26/20 Q1005 NOSIG
cycle: 4

Station Type Date Time Source
VEGT TAF 2020/12/17 12:52 UTC NOAA

TAF VEGT 171100Z 1712/1818 03005KT 2000 BR SCT018 BKN100
BECMG 1713/1715 00000KT 1500 BR
BECMG 1800/1802 0800 FG FEW008
BECMG 1803/1805 03004KT 2000 BR SCT018 BKN100
BECMG 1806/1808 34008KT 3000 HZ FEW020
BECMG 1813/1815 00000KT 2000 BR FEW018 SCT100

Example: see airport list